createdAt,value
2018-09-17T00:22:52.430Z,100564.53
2018-09-17T00:25:21.479Z,100563.91
2018-09-17T00:27:50.042Z,100565.63
2018-09-17T00:30:18.682Z,100561.63
2018-09-17T00:32:47.166Z,100565.75
2018-09-17T00:35:15.717Z,100570.95
2018-09-17T00:37:44.274Z,100568.30
2018-09-17T00:40:12.754Z,100579.30
2018-09-17T00:42:41.454Z,100572.29
2018-09-17T00:45:10.098Z,100564.65
2018-09-17T00:47:38.814Z,100562.97
2018-09-17T00:50:07.386Z,100565.98
2018-09-17T00:52:36.001Z,100566.34
2018-09-17T00:55:04.478Z,100569.98
2018-09-17T00:57:33.077Z,100561.63
2018-09-17T01:00:01.862Z,100562.97
2018-09-17T01:02:30.342Z,100565.63
2018-09-17T01:04:59.006Z,100574.20
2018-09-17T01:07:27.581Z,100573.73
2018-09-17T01:09:56.170Z,100575.06
2018-09-17T01:12:24.766Z,100560.42
2018-09-17T01:14:53.366Z,100567.91
2018-09-17T01:17:21.968Z,100565.98
2018-09-17T01:19:50.554Z,100572.64
2018-09-17T01:22:19.338Z,100585.97
2018-09-17T01:24:47.858Z,100584.27
2018-09-17T01:27:16.676Z,100583.30
2018-09-17T01:29:45.254Z,100574.45
2018-09-17T01:32:13.867Z,100579.06
2018-09-17T01:34:42.488Z,100571.07
2018-09-17T01:37:11.026Z,100555.05
2018-09-17T01:39:39.514Z,100572.13
2018-09-17T01:42:08.034Z,100577.46
2018-09-17T01:44:36.658Z,100567.04
2018-09-17T01:47:05.754Z,100574.56
2018-09-17T01:49:34.678Z,100572.98
2018-09-17T01:52:03.199Z,100590.53
2018-09-17T01:54:31.815Z,100571.50
2018-09-17T01:57:00.286Z,100573.06
2018-09-17T01:59:28.854Z,100574.04
2018-09-17T02:01:57.366Z,100528.38
2018-09-17T02:04:25.954Z,100584.92
2018-09-17T02:06:54.606Z,100539.26
2018-09-17T02:09:23.202Z,100589.50
2018-09-17T02:11:51.829Z,100589.50
2018-09-17T02:14:20.535Z,100600.27
2018-09-17T02:16:49.154Z,100593.14
2018-09-17T02:19:17.762Z,100601.36
2018-09-17T02:21:46.528Z,100607.77
2018-09-17T02:24:15.342Z,100573.51
2018-09-17T02:26:43.962Z,100612.44
2018-09-17T02:29:12.762Z,100601.78
2018-09-17T02:31:41.366Z,100621.39
2018-09-17T02:34:10.054Z,100608.67
2018-09-17T02:36:38.602Z,100606.52
2018-09-17T02:39:08.362Z,100605.30
2018-09-17T02:41:36.840Z,100603.22
2018-09-17T02:44:05.479Z,100606.85
2018-09-17T02:46:34.063Z,100614.95
2018-09-17T02:49:02.695Z,100612.41
2018-09-17T02:51:31.346Z,100606.69
2018-09-17T02:53:59.846Z,100596.04
2018-09-17T02:56:28.722Z,100604.64
2018-09-17T02:58:57.278Z,100602.20
2018-09-17T03:01:25.874Z,100600.48
2018-09-17T03:03:54.443Z,100599.99
2018-09-17T03:06:23.050Z,100599.02
2018-09-17T03:08:51.798Z,100599.99
2018-09-17T03:11:20.381Z,100604.68
2018-09-17T03:13:49.090Z,100586.31
2018-09-17T03:16:17.611Z,100594.38
2018-09-17T03:18:54.352Z,100519.20
2018-09-17T03:21:23.041Z,100601.61
2018-09-17T03:23:51.615Z,100598.70
2018-09-17T03:26:20.758Z,100596.51
2018-09-17T03:28:49.384Z,100588.53
2018-09-17T03:31:18.234Z,100594.07
2018-09-17T03:33:46.796Z,100598.56
2018-09-17T03:36:15.517Z,100596.02
2018-09-17T03:38:47.164Z,100603.36
2018-09-17T03:41:16.830Z,100598.15
2018-09-17T03:43:47.071Z,100591.83
2018-09-17T03:46:15.884Z,100596.80
2018-09-17T03:48:44.385Z,100598.81
2018-09-17T03:51:13.710Z,100602.59
2018-09-17T03:53:42.743Z,100603.23
2018-09-17T03:56:11.387Z,100609.19
2018-09-17T03:58:39.889Z,100615.84
2018-09-17T04:01:08.486Z,100604.34
2018-09-17T04:03:37.139Z,100558.20
2018-09-17T04:06:05.701Z,100594.91
2018-09-17T04:08:34.595Z,100611.98
2018-09-17T04:11:03.180Z,100623.56
2018-09-17T04:13:31.905Z,100628.42
2018-09-17T04:16:00.386Z,100640.03
2018-09-17T04:18:29.145Z,100634.20
2018-09-17T04:20:58.230Z,100632.52
2018-09-17T04:23:41.175Z,100637.63
2018-09-17T04:26:11.097Z,100629.75
2018-09-17T04:28:40.169Z,100626.51
2018-09-17T04:31:08.742Z,100624.31
2018-09-17T04:33:38.837Z,100619.58
2018-09-17T04:36:07.801Z,100614.25
2018-09-17T04:38:36.474Z,100611.98
2018-09-17T04:41:05.362Z,100613.42
2018-09-17T04:43:33.950Z,100614.64
2018-09-17T04:46:02.630Z,100615.58
2018-09-17T04:48:31.414Z,100611.59
2018-09-17T04:51:00.575Z,100610.15
2018-09-17T04:56:04.193Z,100616.67
2018-09-17T04:58:32.783Z,100626.48
2018-09-17T05:01:01.310Z,100623.42
2018-09-17T05:03:29.886Z,100632.14
2018-09-17T05:05:58.420Z,100642.89
2018-09-17T05:08:26.962Z,100650.33
2018-09-17T05:10:55.637Z,100654.97
2018-09-17T05:13:24.225Z,100666.83
2018-09-17T05:15:52.794Z,100666.83
2018-09-17T05:18:21.358Z,100670.21
2018-09-17T05:20:49.994Z,100664.17
2018-09-17T05:23:18.555Z,100662.98
2018-09-17T05:25:47.126Z,100666.22
2018-09-17T05:28:17.830Z,100670.21
2018-09-17T05:30:46.422Z,100677.25
2018-09-17T05:33:14.994Z,100686.56
2018-09-17T05:35:44.637Z,100682.47
2018-09-17T05:38:13.282Z,100659.61
2018-09-17T05:40:41.887Z,100676.17
2018-09-17T05:43:12.852Z,100637.77
2018-09-17T05:45:41.412Z,100680.27
2018-09-17T05:48:10.838Z,100690.56
2018-09-17T05:50:39.303Z,100690.67
2018-09-17T05:53:07.993Z,100696.92
2018-09-17T05:55:36.631Z,100691.49
2018-09-17T05:58:05.347Z,100684.37
2018-09-17T06:00:34.004Z,100673.41
2018-09-17T06:03:02.647Z,100694.94
2018-09-17T06:05:31.487Z,100696.92
2018-09-17T06:08:00.929Z,100704.14
2018-09-17T06:10:30.162Z,100706.70
2018-09-17T06:12:58.802Z,100709.47
2018-09-17T06:15:27.551Z,100625.08
2018-09-17T06:17:56.087Z,100708.72
2018-09-17T06:20:24.624Z,100712.34
2018-09-17T06:22:54.324Z,100735.58
2018-09-17T06:25:23.314Z,100731.69
2018-09-17T06:27:51.967Z,100750.80
2018-09-17T06:30:20.687Z,100758.99
2018-09-17T06:32:49.177Z,100763.97
2018-09-17T06:35:17.686Z,100757.89
2018-09-17T06:37:46.678Z,100708.44
2018-09-17T06:40:15.244Z,100747.21
2018-09-17T06:42:45.241Z,100761.94
2018-09-17T06:45:13.881Z,100760.51
2018-09-17T06:47:42.812Z,100776.96
2018-09-17T06:50:11.614Z,100772.37
2018-09-17T06:52:40.730Z,100778.23
2018-09-17T06:55:09.337Z,100767.31
2018-09-17T06:57:39.753Z,100772.92
2018-09-17T07:00:08.422Z,100783.14
2018-09-17T07:02:37.107Z,100786.31
2018-09-17T07:05:06.106Z,100795.26
2018-09-17T07:07:34.730Z,100806.96
2018-09-17T07:10:03.646Z,100808.48
2018-09-17T07:12:32.137Z,100804.58
2018-09-17T07:15:01.108Z,100805.98
2018-09-17T07:17:29.630Z,100814.01
2018-09-17T07:19:58.286Z,100720.47
2018-09-17T07:22:28.803Z,100812.19
2018-09-17T07:24:57.424Z,100805.56
2018-09-17T07:27:26.019Z,100790.92
2018-09-17T07:29:56.143Z,100806.97
2018-09-17T07:32:24.778Z,100831.94
2018-09-17T07:34:53.394Z,100812.22
2018-09-17T07:37:21.958Z,100818.02
2018-09-17T07:39:50.458Z,100821.47
2018-09-17T07:42:19.138Z,100806.64
2018-09-17T07:44:47.646Z,100826.75
2018-09-17T07:47:16.409Z,100772.80
2018-09-17T07:49:44.974Z,100828.20
2018-09-17T07:52:15.024Z,100821.97
2018-09-17T07:54:43.574Z,100826.85
2018-09-17T07:57:12.110Z,100819.97
2018-09-17T07:59:40.810Z,100809.53
2018-09-17T08:02:09.273Z,100830.77
2018-09-17T08:04:38.658Z,100834.94
2018-09-17T08:07:07.327Z,100849.92
2018-09-17T08:09:35.978Z,100849.20
2018-09-17T08:12:04.564Z,100874.07
2018-09-17T08:14:37.849Z,100863.94
2018-09-17T08:17:06.567Z,100870.96
2018-09-17T08:19:35.432Z,100839.06
2018-09-17T08:22:05.091Z,100869.05
2018-09-17T08:24:34.400Z,100828.05
2018-09-17T08:27:02.885Z,100877.04
2018-09-17T08:29:32.302Z,100866.30
2018-09-17T08:32:00.804Z,100875.09
2018-09-17T08:34:29.796Z,100869.31
2018-09-17T08:36:58.298Z,100864.73
2018-09-17T08:39:27.438Z,100855.50
2018-09-17T08:41:55.962Z,100862.59
2018-09-17T08:44:24.599Z,100860.42
2018-09-17T08:46:53.222Z,100867.48
2018-09-17T08:49:21.805Z,100877.47
2018-09-17T08:51:50.330Z,100874.70
2018-09-17T08:54:18.868Z,100882.27
2018-09-17T08:56:52.797Z,100886.36
2018-09-17T08:59:26.398Z,100884.08
2018-09-17T09:01:59.990Z,100883.25
2018-09-17T09:04:33.930Z,100892.60
2018-09-17T09:07:07.350Z,100894.19
2018-09-17T09:09:36.702Z,100803.67
2018-09-17T09:12:10.510Z,100878.09
2018-09-17T09:14:40.298Z,100891.40
2018-09-17T09:17:10.639Z,100894.25
2018-09-17T09:19:39.851Z,100901.02
2018-09-17T09:22:08.610Z,100905.15
2018-09-17T09:24:37.109Z,100896.50
2018-09-17T09:27:05.845Z,100906.30
2018-09-17T09:29:34.350Z,100903.75
2018-09-17T09:34:37.466Z,100910.14
2018-09-17T09:37:06.290Z,100907.16
2018-09-17T09:39:34.934Z,100867.18
2018-09-17T09:42:03.727Z,100896.88
2018-09-17T09:44:32.246Z,100912.39
2018-09-17T09:47:00.729Z,100896.38
2018-09-17T09:49:29.302Z,100914.67
2018-09-17T09:51:57.758Z,100922.30
2018-09-17T09:54:26.625Z,100910.28
2018-09-17T09:56:55.118Z,100925.70
2018-09-17T09:59:24.047Z,100917.94
2018-09-17T10:01:58.764Z,100925.08
2018-09-17T10:04:27.365Z,100927.60
2018-09-17T10:06:55.953Z,100933.72
2018-09-17T10:09:29.714Z,100932.05
2018-09-17T10:12:03.730Z,100924.45
2018-09-17T10:14:37.586Z,100927.01
2018-09-17T10:17:11.434Z,100932.16
2018-09-17T10:19:45.172Z,100931.09
2018-09-17T10:22:13.631Z,100935.81
2018-09-17T10:24:42.334Z,100929.20
2018-09-17T10:27:10.803Z,100927.52
2018-09-17T10:29:39.620Z,100938.72
2018-09-17T10:32:08.426Z,100931.88
2018-09-17T10:34:37.052Z,100947.67
2018-09-17T10:37:05.994Z,100940.45
2018-09-17T10:39:34.574Z,100940.52
2018-09-17T10:42:04.834Z,100946.84
2018-09-17T10:44:33.374Z,100960.13
2018-09-17T10:47:02.591Z,100941.72
2018-09-17T10:49:31.054Z,100958.63
2018-09-17T10:52:00.218Z,100962.64
2018-09-17T10:54:28.738Z,100965.33
2018-09-17T10:57:01.426Z,100962.74
2018-09-17T10:59:30.034Z,100968.45
2018-09-17T11:01:59.562Z,100966.02
2018-09-17T11:04:28.185Z,100975.25
2018-09-17T11:06:57.566Z,100976.58
2018-09-17T11:09:26.070Z,100973.80
2018-09-17T11:11:54.934Z,100974.15
2018-09-17T11:14:24.429Z,100975.96
2018-09-17T11:16:53.562Z,100980.83
2018-09-17T11:19:24.203Z,100965.89
2018-09-17T11:21:52.933Z,100968.48
2018-09-17T11:24:21.601Z,100970.64
2018-09-17T11:26:51.082Z,100964.44
2018-09-17T11:29:26.562Z,100973.94
2018-09-17T11:31:56.126Z,100967.85
2018-09-17T11:34:25.007Z,100971.27
2018-09-17T11:36:53.578Z,100972.13
2018-09-17T11:39:22.130Z,100976.25
2018-09-17T11:41:51.571Z,100980.86
2018-09-17T11:44:20.167Z,100993.23
2018-09-17T11:46:49.227Z,100991.31
2018-09-17T11:49:17.751Z,100988.75
2018-09-17T11:51:46.568Z,100986.47
2018-09-17T11:54:16.898Z,100989.86
2018-09-17T11:56:45.826Z,100909.46
2018-09-17T11:59:14.306Z,100993.98
2018-09-17T12:01:48.201Z,101001.28
2018-09-17T12:04:21.730Z,100993.27
2018-09-17T12:07:59.166Z,100994.73
2018-09-17T12:10:31.226Z,100999.94
2018-09-17T12:13:01.418Z,100985.97
2018-09-17T12:15:30.194Z,100997.02
2018-09-17T12:18:01.216Z,100988.91
2018-09-17T12:20:29.800Z,100990.59
2018-09-17T12:23:00.396Z,100979.17
2018-09-17T12:25:29.090Z,100981.10
2018-09-17T12:28:00.685Z,100985.86
2018-09-17T12:30:29.348Z,100984.41
2018-09-17T12:32:57.901Z,100986.81
2018-09-17T12:35:27.743Z,100993.02
2018-09-17T12:37:56.633Z,100999.70
2018-09-17T12:40:26.226Z,101005.28
2018-09-17T12:42:55.288Z,101004.08
2018-09-17T12:45:25.626Z,101008.09
2018-09-17T12:47:54.742Z,101001.52
2018-09-17T12:50:25.938Z,101003.47
2018-09-17T12:52:54.404Z,101005.80
2018-09-17T12:55:23.141Z,100995.47
2018-09-17T12:57:51.751Z,100996.31
2018-09-17T13:00:20.217Z,101000.05
2018-09-17T13:02:49.073Z,100996.80
2018-09-17T13:05:17.570Z,100992.05
2018-09-17T13:07:46.416Z,100992.53
2018-09-17T13:12:39.207Z,100998.86
2018-09-17T13:15:08.346Z,100994.84
2018-09-17T13:17:37.135Z,100988.42
2018-09-17T13:20:06.389Z,100997.17
2018-09-17T13:22:34.882Z,100991.09
2018-09-17T13:25:03.670Z,100988.89
2018-09-17T13:27:32.342Z,100993.15
2018-09-17T13:30:00.870Z,100976.14
2018-09-17T13:32:29.522Z,100948.29
2018-09-17T13:34:58.582Z,100985.50
2018-09-17T13:37:27.173Z,100980.86
2018-09-17T13:39:55.706Z,100978.45
2018-09-17T13:42:24.569Z,100978.80
2018-09-17T13:44:53.054Z,100973.33
2018-09-17T13:47:21.806Z,100968.34
2018-09-17T13:49:51.206Z,100971.39
2018-09-17T13:52:19.772Z,100976.85
2018-09-17T13:54:48.479Z,100974.77
2018-09-17T13:57:17.113Z,100986.32
2018-09-17T13:59:45.599Z,100977.55
2018-09-17T14:02:14.176Z,100971.98
2018-09-17T14:04:43.030Z,100933.29
2018-09-17T14:07:11.584Z,100976.95
2018-09-17T14:09:40.304Z,100984.02
2018-09-17T14:12:08.794Z,100987.41
2018-09-17T14:14:37.514Z,100990.33
2018-09-17T14:17:06.266Z,100985.47
2018-09-17T14:19:34.774Z,100993.13
2018-09-17T14:22:03.706Z,101002.84
2018-09-17T14:24:32.166Z,101005.54
2018-09-17T14:27:01.166Z,101016.59
2018-09-17T14:29:29.723Z,101006.39
2018-09-17T14:32:03.580Z,101005.92
2018-09-17T14:34:32.086Z,101005.06
2018-09-17T14:37:00.898Z,100993.01
2018-09-17T14:39:29.433Z,100980.38
2018-09-17T14:41:58.660Z,100985.72
2018-09-17T14:44:27.135Z,100984.03
2018-09-17T14:46:55.794Z,100985.01
2018-09-17T14:49:24.326Z,100953.89
2018-09-17T14:51:52.905Z,100977.47
2018-09-17T14:54:24.249Z,100879.01
2018-09-17T14:57:06.664Z,100978.32
2018-09-17T14:59:38.018Z,100979.90
2018-09-17T15:02:07.524Z,100985.72
2018-09-17T15:04:36.796Z,100985.84
2018-09-17T15:07:09.286Z,100980.27
2018-09-17T15:09:37.908Z,100981.45
2018-09-17T15:12:07.948Z,100893.00
2018-09-17T15:14:39.800Z,100983.31
2018-09-17T15:17:09.391Z,100971.77
2018-09-17T15:19:41.478Z,100980.28
2018-09-17T15:22:16.850Z,100988.37
2018-09-17T15:24:45.894Z,100987.27
2018-09-17T15:27:19.412Z,100981.92
2018-09-17T15:29:51.695Z,100970.37
2018-09-17T15:32:21.738Z,100970.25
2018-09-17T15:34:52.259Z,100968.04
2018-09-17T15:37:24.921Z,100966.06
2018-09-17T15:39:54.195Z,100962.05
2018-09-17T15:42:25.776Z,100959.72
2018-09-17T15:44:56.731Z,100958.50
2018-09-17T15:47:29.785Z,100952.30
2018-09-17T15:50:00.090Z,100950.48
2018-09-17T15:52:31.098Z,100958.59
2018-09-17T15:55:03.212Z,100960.41
2018-09-17T15:57:36.308Z,100968.41
2018-09-17T16:00:08.110Z,100967.44
2018-09-17T16:02:37.818Z,100963.30
2018-09-17T16:05:10.619Z,100952.73
2018-09-17T16:07:40.080Z,100954.55
2018-09-17T16:10:10.283Z,100960.22
2018-09-17T16:12:39.622Z,100957.78
2018-09-17T16:15:08.261Z,100956.20
2018-09-17T16:17:36.863Z,100946.73
2018-09-17T16:20:08.420Z,100936.70
2018-09-17T16:22:38.800Z,100951.77
2018-09-17T16:25:10.426Z,100909.75
2018-09-17T16:27:41.004Z,100924.49
2018-09-17T16:30:13.980Z,100934.83
2018-09-17T16:32:51.793Z,100932.97
2018-09-17T16:35:23.150Z,100929.58
2018-09-17T16:37:55.446Z,100927.38
2018-09-17T16:40:26.940Z,100920.69
2018-09-17T16:42:58.010Z,100908.64
2018-09-17T16:45:33.161Z,100908.14
2018-09-17T16:48:07.186Z,100902.39
2018-09-17T16:50:53.547Z,100903.59
2018-09-17T16:53:23.309Z,100904.75
2018-09-17T16:55:53.988Z,100901.08
2018-09-17T16:58:24.756Z,100898.03
2018-09-17T17:00:56.312Z,100914.70
2018-09-17T17:03:25.500Z,100914.92
2018-09-17T17:05:56.742Z,100913.81
2018-09-17T17:08:31.311Z,100923.75
2018-09-17T17:11:02.848Z,100930.45
2018-09-17T17:13:33.743Z,100939.27
2018-09-17T17:16:04.310Z,100936.42
2018-09-17T17:18:35.333Z,100936.63
2018-09-17T17:21:09.017Z,100939.15
2018-09-17T17:23:40.300Z,100939.11
2018-09-17T17:26:10.750Z,100942.63
2018-09-17T17:28:41.599Z,100947.33
2018-09-17T17:31:11.118Z,100954.56
2018-09-17T17:33:39.939Z,100958.87
2018-09-17T17:36:09.414Z,100958.98
2018-09-17T17:38:47.228Z,100952.06
2018-09-17T17:41:20.415Z,100954.17
2018-09-17T17:46:29.156Z,100960.48
2018-09-17T17:49:00.787Z,100958.03
2018-09-17T17:51:30.686Z,100950.15
2018-09-17T17:54:02.246Z,100953.88
2018-09-17T17:56:30.958Z,100963.77
2018-09-17T17:58:59.539Z,100961.97
2018-09-17T18:01:28.302Z,100957.32
2018-09-17T18:03:56.947Z,100959.62
2018-09-17T18:06:26.572Z,100956.20
2018-09-17T18:08:56.239Z,100950.88
2018-09-17T18:11:24.822Z,100952.34
2018-09-17T18:13:55.560Z,100958.03
2018-09-17T18:16:29.791Z,100958.86
2018-09-17T18:18:59.905Z,100955.27
2018-09-17T18:21:28.658Z,100948.00
2018-09-17T18:26:34.154Z,100945.14
2018-09-17T18:29:05.247Z,100949.89
2018-09-17T18:31:33.738Z,100958.45
2018-09-17T18:34:02.227Z,100957.52
2018-09-17T18:36:33.189Z,100953.73
2018-09-17T18:39:02.395Z,100956.18
2018-09-17T18:41:31.138Z,100959.56
2018-09-17T18:43:59.750Z,100971.55
2018-09-17T18:46:28.771Z,100924.20
2018-09-17T18:48:57.267Z,100963.56
2018-09-17T18:51:30.589Z,100959.97
2018-09-17T18:53:59.564Z,100954.54
2018-09-17T18:56:28.389Z,100959.86
2018-09-17T18:58:57.082Z,100951.77
2018-09-17T19:01:25.591Z,100954.80
2018-09-17T19:03:54.180Z,100950.81
2018-09-17T19:06:22.895Z,100932.53
2018-09-17T19:08:51.494Z,100932.94
2018-09-17T19:11:20.197Z,100866.10
2018-09-17T19:13:53.827Z,100944.70
2018-09-17T19:16:27.466Z,100938.41
2018-09-17T19:18:56.310Z,100931.39
2018-09-17T19:21:29.196Z,100944.09
2018-09-17T19:24:01.880Z,100946.03
2018-09-17T19:26:30.762Z,100948.09
2018-09-17T19:29:04.793Z,100950.19
2018-09-17T19:31:33.487Z,100946.76
2018-09-17T19:34:02.129Z,100946.76
2018-09-17T19:36:30.753Z,100939.64
2018-09-17T19:39:04.590Z,100937.08
2018-09-17T19:41:33.233Z,100933.30
2018-09-17T19:44:02.733Z,100930.27
2018-09-17T19:46:31.299Z,100919.83
2018-09-17T19:49:00.040Z,100921.95
2018-09-17T19:51:33.918Z,100924.81
2018-09-17T19:54:02.432Z,100920.45
2018-09-17T19:56:30.930Z,100913.05
2018-09-17T20:00:07.477Z,100905.64
2018-09-17T20:02:36.069Z,100899.80
2018-09-17T20:05:10.809Z,100897.34
2018-09-17T20:07:39.593Z,100893.92
2018-09-17T20:10:08.307Z,100882.55
2018-09-17T20:12:36.965Z,100898.72
2018-09-17T20:15:06.508Z,100884.66
2018-09-17T20:17:35.483Z,100887.53
2018-09-17T20:20:04.219Z,100886.77
2018-09-17T20:22:32.873Z,100885.07
2018-09-17T20:25:01.414Z,100882.41
2018-09-17T20:27:29.958Z,100869.31
2018-09-17T20:29:58.722Z,100860.78
2018-09-17T20:32:27.342Z,100859.95
2018-09-17T20:34:56.204Z,100860.99
2018-09-17T20:37:24.738Z,100860.27
2018-09-17T20:39:53.350Z,100861.80
2018-09-17T20:42:21.910Z,100858.53
2018-09-17T20:44:50.524Z,100854.75
2018-09-17T20:47:19.074Z,100807.05
2018-09-17T20:49:47.653Z,100859.91
2018-09-17T20:52:16.442Z,100868.09
2018-09-17T20:54:44.962Z,100864.47
2018-09-17T20:57:13.545Z,100845.33
2018-09-17T20:59:42.185Z,100851.02
2018-09-17T21:02:11.359Z,100840.87
2018-09-17T21:04:39.930Z,100836.99
2018-09-17T21:07:08.399Z,100839.25
2018-09-17T21:09:37.087Z,100808.55
2018-09-17T21:12:05.760Z,100834.91
2018-09-17T21:14:35.158Z,100835.37
2018-09-17T21:17:03.801Z,100823.30
2018-09-17T21:19:32.862Z,100833.94
2018-09-17T21:22:01.317Z,100822.58
2018-09-17T21:24:29.873Z,100824.42
2018-09-17T21:26:58.423Z,100830.87
2018-09-17T21:29:27.159Z,100829.70
2018-09-17T21:31:55.708Z,100821.91
2018-09-17T21:34:24.291Z,100826.63
2018-09-17T21:36:53.517Z,100840.47
2018-09-17T21:39:21.926Z,100843.89
2018-09-17T21:41:50.612Z,100838.58
2018-09-17T21:44:19.237Z,100844.63
2018-09-17T21:46:48.000Z,100839.69
2018-09-17T21:49:16.634Z,100838.16
2018-09-17T21:51:45.440Z,100835.28
2018-09-17T21:54:13.955Z,100834.22
2018-09-17T21:56:42.500Z,100828.80
2018-09-17T21:59:11.963Z,100829.55
2018-09-17T22:01:40.460Z,100822.90
2018-09-17T22:04:09.426Z,100817.58
2018-09-17T22:06:37.895Z,100822.30
2018-09-17T22:09:08.086Z,100819.42
2018-09-17T22:11:36.612Z,100815.83
2018-09-17T22:14:05.552Z,100811.13
2018-09-17T22:16:34.296Z,100807.89
2018-09-17T22:19:02.850Z,100807.67
2018-09-17T22:21:31.355Z,100809.52
2018-09-17T22:23:59.822Z,100796.86
2018-09-17T22:26:28.935Z,100795.09
2018-09-17T22:28:57.459Z,100792.58
2018-09-17T22:31:26.260Z,100788.55
2018-09-17T22:33:54.858Z,100790.78
2018-09-17T22:36:23.499Z,100776.63
2018-09-17T22:38:52.042Z,100768.93
2018-09-17T22:41:20.580Z,100773.95
2018-09-17T22:43:49.153Z,100775.78
2018-09-17T22:46:17.626Z,100770.59
2018-09-17T22:48:46.511Z,100704.85
2018-09-17T22:51:14.989Z,100763.61
2018-09-17T22:53:43.769Z,100779.13
2018-09-17T22:56:12.403Z,100781.56
2018-09-17T22:58:41.120Z,100767.27
2018-09-17T23:01:09.622Z,100769.71
2018-09-17T23:03:38.150Z,100766.36
2018-09-17T23:06:06.642Z,100769.27
2018-09-17T23:08:35.169Z,100763.94
2018-09-17T23:11:03.941Z,100767.35
2018-09-17T23:13:32.662Z,100767.35
2018-09-17T23:16:01.359Z,100690.41
2018-09-17T23:18:29.955Z,100760.47
2018-09-17T23:20:58.667Z,100762.91
2018-09-17T23:23:27.286Z,100760.27
2018-09-17T23:25:55.960Z,100760.54
2018-09-17T23:28:24.451Z,100761.53
2018-09-17T23:30:53.034Z,100766.49
2018-09-17T23:33:21.850Z,100716.21
2018-09-17T23:35:50.298Z,100769.45
2018-09-17T23:38:18.820Z,100760.87
2018-09-17T23:40:47.494Z,100761.00
2018-09-17T23:43:16.062Z,100758.22
2018-09-17T23:45:44.625Z,100756.66
2018-09-17T23:48:13.173Z,100753.41
2018-09-17T23:50:42.009Z,100760.30
2018-09-17T23:53:10.564Z,100751.84
2018-09-17T23:55:39.434Z,100752.08
2018-09-17T23:58:08.040Z,100759.09
